createdAt,value
2023-03-26T00:00:21.422Z,7.78
2023-03-26T00:01:21.423Z,7.79
2023-03-26T00:02:21.389Z,7.78
2023-03-26T00:03:21.312Z,7.79
2023-03-26T00:04:21.377Z,7.82
2023-03-26T00:05:21.263Z,7.81
2023-03-26T00:06:21.346Z,7.82
2023-03-26T00:07:21.269Z,7.81
2023-03-26T00:08:21.279Z,7.79
2023-03-26T00:09:21.257Z,7.82
2023-03-26T00:10:21.442Z,7.84
2023-03-26T00:11:21.194Z,7.84
2023-03-26T00:12:21.236Z,7.84
2023-03-26T00:13:21.212Z,7.84
2023-03-26T00:14:21.262Z,7.84
2023-03-26T00:15:21.195Z,7.84
2023-03-26T00:16:21.196Z,7.82
2023-03-26T00:17:21.159Z,7.82
2023-03-26T00:18:21.152Z,7.81
2023-03-26T00:19:21.171Z,7.81
2023-03-26T00:20:21.192Z,7.81
2023-03-26T00:21:21.130Z,7.79
2023-03-26T00:22:21.090Z,7.79
2023-03-26T00:23:21.189Z,7.79
2023-03-26T00:24:21.078Z,7.78
2023-03-26T00:25:21.252Z,7.78
2023-03-26T00:26:21.114Z,7.78
2023-03-26T00:27:21.052Z,7.79
2023-03-26T00:28:21.172Z,7.79
2023-03-26T00:29:21.074Z,7.81
2023-03-26T00:30:21.028Z,7.81
2023-03-26T00:31:21.080Z,7.79
2023-03-26T00:32:21.104Z,7.81
2023-03-26T00:33:20.991Z,7.82
2023-03-26T00:34:21.003Z,7.84
2023-03-26T00:35:20.973Z,7.82
2023-03-26T00:36:20.993Z,7.82
2023-03-26T00:37:21.007Z,7.82
2023-03-26T00:38:21.367Z,7.81
2023-03-26T00:39:20.994Z,7.82
2023-03-26T00:40:20.924Z,7.82
2023-03-26T00:41:21.138Z,7.81
2023-03-26T00:42:20.992Z,7.81
2023-03-26T00:43:21.013Z,7.82
2023-03-26T00:44:20.940Z,7.85
2023-03-26T00:45:20.911Z,7.85
2023-03-26T00:46:20.973Z,7.85
2023-03-26T00:47:20.924Z,7.85
2023-03-26T00:48:26.436Z,7.87
2023-03-26T00:49:20.860Z,7.87
2023-03-26T00:50:21.046Z,7.90
2023-03-26T00:51:20.852Z,7.90
2023-03-26T00:52:20.858Z,7.92
2023-03-26T00:53:20.965Z,7.90
2023-03-26T00:54:21.041Z,7.90
2023-03-26T00:55:20.786Z,7.92
2023-03-26T00:56:20.803Z,7.89
2023-03-26T00:57:34.484Z,7.89
2023-03-26T00:58:20.826Z,7.87
2023-03-26T00:59:20.724Z,7.85
2023-03-26T01:00:20.730Z,7.82
2023-03-26T01:01:20.741Z,7.82
2023-03-26T01:02:20.729Z,7.81
2023-03-26T01:03:27.833Z,7.79
2023-03-26T01:04:20.861Z,7.81
2023-03-26T01:05:20.701Z,7.81
2023-03-26T01:06:20.884Z,7.79
2023-03-26T01:07:20.712Z,7.79
2023-03-26T01:08:20.652Z,7.78
2023-03-26T01:09:20.899Z,7.78
2023-03-26T01:10:20.824Z,7.79
2023-03-26T01:11:20.645Z,7.81
2023-03-26T01:12:20.714Z,7.81
2023-03-26T01:13:20.684Z,7.82
2023-03-26T01:14:20.840Z,7.79
2023-03-26T01:15:20.715Z,7.81
2023-03-26T01:16:20.822Z,7.79
2023-03-26T01:17:21.639Z,7.79
2023-03-26T01:18:20.561Z,7.78
2023-03-26T01:19:20.568Z,7.79
2023-03-26T01:20:20.742Z,7.79
2023-03-26T01:21:20.532Z,7.82
2023-03-26T01:22:20.547Z,7.82
2023-03-26T01:23:20.484Z,7.84
2023-03-26T01:24:20.549Z,7.84
2023-03-26T01:25:20.490Z,7.85
2023-03-26T01:26:20.991Z,7.85
2023-03-26T01:27:20.524Z,7.89
2023-03-26T01:28:20.530Z,7.89
2023-03-26T01:29:21.042Z,7.92
2023-03-26T01:30:20.614Z,7.92
2023-03-26T01:31:20.578Z,7.93
2023-03-26T01:32:20.502Z,7.94
2023-03-26T01:33:20.613Z,7.94
2023-03-26T01:34:20.559Z,7.94
2023-03-26T01:35:20.421Z,7.93
2023-03-26T01:36:21.226Z,7.93
2023-03-26T01:37:20.419Z,7.93
2023-03-26T01:38:20.465Z,7.93
2023-03-26T01:39:20.437Z,7.92
2023-03-26T01:40:21.071Z,7.92
2023-03-26T01:41:20.485Z,7.92
2023-03-26T01:42:20.349Z,7.92
2023-03-26T01:43:20.312Z,7.94
2023-03-26T01:44:20.518Z,7.93
2023-03-26T01:45:20.237Z,7.93
2023-03-26T01:46:20.292Z,7.94
2023-03-26T01:47:20.246Z,7.94
2023-03-26T01:48:20.420Z,7.94
2023-03-26T01:49:20.352Z,7.92
2023-03-26T01:50:20.393Z,7.92
2023-03-26T01:51:20.264Z,7.90
2023-03-26T01:52:20.233Z,7.89
2023-03-26T01:53:20.230Z,7.87
2023-03-26T01:54:20.221Z,7.87
2023-03-26T01:55:20.363Z,7.85
2023-03-26T01:56:20.279Z,7.85
2023-03-26T01:57:20.193Z,7.85
2023-03-26T01:58:20.249Z,7.87
2023-03-26T01:59:20.212Z,7.87
2023-03-26T02:00:20.192Z,7.85
2023-03-26T02:01:20.148Z,7.85
2023-03-26T02:02:20.426Z,7.82
2023-03-26T02:03:20.840Z,7.78
2023-03-26T02:04:20.236Z,7.72
2023-03-26T02:05:20.289Z,7.69
2023-03-26T02:06:20.447Z,7.63
2023-03-26T02:07:20.291Z,7.58
2023-03-26T02:08:20.115Z,7.53
2023-03-26T02:09:20.221Z,7.49
2023-03-26T02:10:20.170Z,7.45
2023-03-26T02:11:20.170Z,7.41
2023-03-26T02:12:20.437Z,7.37
2023-03-26T02:13:20.017Z,7.35
2023-03-26T02:14:20.176Z,7.32
2023-03-26T02:15:20.298Z,7.27
2023-03-26T02:16:20.178Z,7.27
2023-03-26T02:17:20.025Z,7.23
2023-03-26T02:18:20.616Z,7.23
2023-03-26T02:19:20.391Z,7.22
2023-03-26T02:20:20.189Z,7.19
2023-03-26T02:21:19.940Z,7.19
2023-03-26T02:22:20.098Z,7.13
2023-03-26T02:23:20.696Z,7.08
2023-03-26T02:24:20.291Z,7.05
2023-03-26T02:25:19.910Z,7.02
2023-03-26T02:26:19.977Z,6.99
2023-03-26T02:27:20.264Z,7.02
2023-03-26T02:28:19.824Z,7.02
2023-03-26T02:29:20.046Z,7.05
2023-03-26T02:30:20.747Z,7.07
2023-03-26T02:31:19.820Z,7.09
2023-03-26T02:32:20.050Z,7.12
2023-03-26T02:33:19.818Z,7.15
2023-03-26T02:34:19.784Z,7.16
2023-03-26T02:35:19.835Z,7.24
2023-03-26T02:36:19.929Z,7.26
2023-03-26T02:37:19.909Z,7.29
2023-03-26T02:38:19.796Z,7.31
2023-03-26T02:39:19.751Z,7.31
2023-03-26T02:40:19.811Z,7.32
2023-03-26T02:41:19.886Z,7.37
2023-03-26T02:42:19.720Z,7.37
2023-03-26T02:43:19.755Z,7.38
2023-03-26T02:44:19.709Z,7.40
2023-03-26T02:45:19.684Z,7.42
2023-03-26T02:46:19.706Z,7.44
2023-03-26T02:47:19.656Z,7.45
2023-03-26T02:48:20.001Z,7.45
2023-03-26T02:49:19.621Z,7.47
2023-03-26T02:50:19.675Z,7.49
2023-03-26T02:51:19.905Z,7.49
2023-03-26T02:52:20.044Z,7.49
2023-03-26T02:53:19.715Z,7.50
2023-03-26T02:54:19.790Z,7.49
2023-03-26T02:55:19.600Z,7.49
2023-03-26T02:56:19.588Z,7.50
2023-03-26T02:57:19.582Z,7.50
2023-03-26T02:58:19.613Z,7.50
2023-03-26T02:59:19.577Z,7.50
2023-03-26T03:00:19.568Z,7.52
2023-03-26T03:01:19.557Z,7.50
2023-03-26T03:02:20.080Z,7.53
2023-03-26T03:03:19.688Z,7.52
2023-03-26T03:04:19.526Z,7.55
2023-03-26T03:05:19.529Z,7.55
2023-03-26T03:06:19.554Z,7.58
2023-03-26T03:07:19.604Z,7.58
2023-03-26T03:08:19.742Z,7.56
2023-03-26T03:09:19.452Z,7.56
2023-03-26T03:10:19.460Z,7.56
2023-03-26T03:11:19.648Z,7.53
2023-03-26T03:12:19.788Z,7.52
2023-03-26T03:13:19.488Z,7.50
2023-03-26T03:14:19.651Z,7.45
2023-03-26T03:15:19.464Z,7.42
2023-03-26T03:16:19.627Z,7.38
2023-03-26T03:17:19.385Z,7.34
2023-03-26T03:18:19.450Z,7.29
2023-03-26T03:19:19.367Z,7.24
2023-03-26T03:20:19.545Z,7.20
2023-03-26T03:21:19.376Z,7.15
2023-03-26T03:22:19.627Z,7.08
2023-03-26T03:23:19.349Z,7.07
2023-03-26T03:24:19.358Z,7.02
2023-03-26T03:25:19.560Z,6.99
2023-03-26T03:26:19.530Z,6.99
2023-03-26T03:27:19.289Z,6.95
2023-03-26T03:28:19.931Z,6.90
2023-03-26T03:29:19.458Z,6.84
2023-03-26T03:30:19.256Z,6.79
2023-03-26T03:31:19.484Z,6.71
2023-03-26T03:32:19.307Z,6.66
2023-03-26T03:33:19.246Z,6.66
2023-03-26T03:34:19.265Z,6.66
2023-03-26T03:35:19.382Z,6.62
2023-03-26T03:36:20.537Z,6.59
2023-03-26T03:37:19.183Z,6.54
2023-03-26T03:38:19.320Z,6.54
2023-03-26T03:39:19.394Z,6.56
2023-03-26T03:40:19.336Z,6.56
2023-03-26T03:41:19.173Z,6.54
2023-03-26T03:42:19.088Z,6.54
2023-03-26T03:43:19.198Z,6.54
2023-03-26T03:44:19.185Z,6.56
2023-03-26T03:45:19.239Z,6.62
2023-03-26T03:46:19.246Z,6.66
2023-03-26T03:47:19.299Z,6.65
2023-03-26T03:48:19.284Z,6.66
2023-03-26T03:49:19.060Z,6.63
2023-03-26T03:50:19.253Z,6.65
2023-03-26T03:51:19.257Z,6.68
2023-03-26T03:52:19.349Z,6.66
2023-03-26T03:53:19.060Z,6.68
2023-03-26T03:54:19.209Z,6.66
2023-03-26T03:55:19.012Z,6.63
2023-03-26T03:56:19.628Z,6.63
2023-03-26T03:57:19.073Z,6.65
2023-03-26T03:58:19.196Z,6.65
2023-03-26T03:59:18.982Z,6.66
2023-03-26T04:00:19.136Z,6.71
2023-03-26T04:01:18.946Z,6.73
2023-03-26T04:02:19.104Z,6.73
2023-03-26T04:03:19.201Z,6.77
2023-03-26T04:04:18.992Z,6.77
2023-03-26T04:05:18.926Z,6.77
2023-03-26T04:06:19.183Z,6.73
2023-03-26T04:07:18.910Z,6.72
2023-03-26T04:08:18.960Z,6.71
2023-03-26T04:09:18.891Z,6.71
2023-03-26T04:10:18.876Z,6.69
2023-03-26T04:11:18.869Z,6.66
2023-03-26T04:12:18.997Z,6.63
2023-03-26T04:13:19.006Z,6.62
2023-03-26T04:14:18.923Z,6.56
2023-03-26T04:15:18.969Z,6.53
2023-03-26T04:16:19.095Z,6.50
2023-03-26T04:17:18.831Z,6.47
2023-03-26T04:18:18.871Z,6.46
2023-03-26T04:19:18.780Z,6.47
2023-03-26T04:20:19.032Z,6.48
2023-03-26T04:21:19.058Z,6.50
2023-03-26T04:22:18.738Z,6.50
2023-03-26T04:23:18.934Z,6.50
2023-03-26T04:24:18.816Z,6.48
2023-03-26T04:25:18.769Z,6.53
2023-03-26T04:26:18.819Z,6.58
2023-03-26T04:27:18.716Z,6.56
2023-03-26T04:28:18.667Z,6.54
2023-03-26T04:29:18.819Z,6.53
2023-03-26T04:30:18.739Z,6.50
2023-03-26T04:31:18.687Z,6.47
2023-03-26T04:32:18.853Z,6.46
2023-03-26T04:33:18.688Z,6.44
2023-03-26T04:34:18.843Z,6.44
2023-03-26T04:35:18.845Z,6.47
2023-03-26T04:36:18.752Z,6.46
2023-03-26T04:37:18.652Z,6.47
2023-03-26T04:38:18.626Z,6.47
2023-03-26T04:39:18.747Z,6.48
2023-03-26T04:40:18.637Z,6.53
2023-03-26T04:41:18.757Z,6.53
2023-03-26T04:42:18.726Z,6.56
2023-03-26T04:43:18.762Z,6.56
2023-03-26T04:44:18.544Z,6.59
2023-03-26T04:45:18.795Z,6.61
2023-03-26T04:46:18.771Z,6.59
2023-03-26T04:47:18.867Z,6.62
2023-03-26T04:48:18.584Z,6.63
2023-03-26T04:49:18.545Z,6.63
2023-03-26T04:50:18.637Z,6.65
2023-03-26T04:51:18.535Z,6.69
2023-03-26T04:52:18.587Z,6.72
2023-03-26T04:53:18.473Z,6.73
2023-03-26T04:54:18.588Z,6.76
2023-03-26T04:55:18.759Z,6.79
2023-03-26T04:56:18.446Z,6.81
2023-03-26T04:57:18.561Z,6.81
2023-03-26T04:58:18.579Z,6.84
2023-03-26T04:59:18.521Z,6.84
2023-03-26T05:00:18.553Z,6.87
2023-03-26T05:01:18.748Z,6.89
2023-03-26T05:02:18.797Z,6.90
2023-03-26T05:03:18.478Z,6.91
2023-03-26T05:04:18.686Z,6.94
2023-03-26T05:05:18.576Z,6.94
2023-03-26T05:06:18.351Z,6.97
2023-03-26T05:07:18.440Z,6.98
2023-03-26T05:08:19.119Z,6.98
2023-03-26T05:09:18.290Z,6.99
2023-03-26T05:10:18.309Z,7.01
2023-03-26T05:11:18.407Z,7.04
2023-03-26T05:12:18.394Z,7.04
2023-03-26T05:13:18.476Z,7.05
2023-03-26T05:14:18.359Z,7.05
2023-03-26T05:15:18.358Z,7.05
2023-03-26T05:16:18.271Z,7.08
2023-03-26T05:17:18.277Z,7.07
2023-03-26T05:18:18.301Z,7.08
2023-03-26T05:19:18.197Z,7.08
2023-03-26T05:20:18.631Z,7.09
2023-03-26T05:21:18.265Z,7.12
2023-03-26T05:22:18.187Z,7.09
2023-03-26T05:23:18.201Z,7.09
2023-03-26T05:24:18.156Z,7.09
2023-03-26T05:25:18.273Z,7.08
2023-03-26T05:26:18.344Z,7.09
2023-03-26T05:27:18.326Z,7.09
2023-03-26T05:28:18.156Z,7.12
2023-03-26T05:29:18.111Z,7.13
2023-03-26T05:30:18.097Z,7.13
2023-03-26T05:31:18.130Z,7.13
2023-03-26T05:32:18.249Z,7.12
2023-03-26T05:33:18.418Z,7.12
2023-03-26T05:34:18.082Z,7.13
2023-03-26T05:35:18.287Z,7.12
2023-03-26T05:36:18.158Z,7.12
2023-03-26T05:37:18.159Z,7.09
2023-03-26T05:38:18.250Z,7.09
2023-03-26T05:39:18.156Z,7.12
2023-03-26T05:40:18.103Z,7.12
2023-03-26T05:41:18.049Z,7.12
2023-03-26T05:42:18.010Z,7.12
2023-03-26T05:43:17.943Z,7.09
2023-03-26T05:44:17.979Z,7.12
2023-03-26T05:45:18.147Z,7.13
2023-03-26T05:46:18.524Z,7.13
2023-03-26T05:47:17.919Z,7.13
2023-03-26T05:48:17.945Z,7.13
2023-03-26T05:49:17.869Z,7.13
2023-03-26T05:50:17.992Z,7.16
2023-03-26T05:51:18.272Z,7.13
2023-03-26T05:52:17.877Z,7.13
2023-03-26T05:53:17.968Z,7.16
2023-03-26T05:54:17.896Z,7.16
2023-03-26T05:55:18.004Z,7.17
2023-03-26T05:56:17.962Z,7.17
2023-03-26T05:57:17.837Z,7.19
2023-03-26T05:58:17.820Z,7.19
2023-03-26T05:59:17.795Z,7.19
2023-03-26T06:00:17.895Z,7.20
2023-03-26T06:01:17.872Z,7.20
2023-03-26T06:02:17.882Z,7.22
2023-03-26T06:03:17.961Z,7.23
2023-03-26T06:04:18.021Z,7.24
2023-03-26T06:05:17.966Z,7.22
2023-03-26T06:06:18.397Z,7.26
2023-03-26T06:07:17.781Z,7.26
2023-03-26T06:08:17.787Z,7.24
2023-03-26T06:09:18.223Z,7.29
2023-03-26T06:10:18.195Z,7.29
2023-03-26T06:11:17.738Z,7.31
2023-03-26T06:12:17.882Z,7.32
2023-03-26T06:13:17.876Z,7.35
2023-03-26T06:14:17.790Z,7.37
2023-03-26T06:15:17.787Z,7.38
2023-03-26T06:16:26.135Z,7.40
2023-03-26T06:17:17.674Z,7.40
2023-03-26T06:18:17.700Z,7.41
2023-03-26T06:19:17.832Z,7.44
2023-03-26T06:20:18.352Z,7.44
2023-03-26T06:21:17.617Z,7.47
2023-03-26T06:22:18.200Z,7.47
2023-03-26T06:23:17.582Z,7.50
2023-03-26T06:24:17.554Z,7.50
2023-03-26T06:25:17.736Z,7.50
2023-03-26T06:26:17.564Z,7.52
2023-03-26T06:27:17.570Z,7.53
2023-03-26T06:28:17.545Z,7.53
2023-03-26T06:29:17.574Z,7.55
2023-03-26T06:30:17.668Z,7.56
2023-03-26T06:31:17.590Z,7.59
2023-03-26T06:32:20.176Z,7.56
2023-03-26T06:33:17.601Z,7.59
2023-03-26T06:34:17.506Z,7.60
2023-03-26T06:35:17.567Z,7.60
2023-03-26T06:36:17.847Z,7.63
2023-03-26T06:37:17.452Z,7.66
2023-03-26T06:38:17.771Z,7.63
2023-03-26T06:39:17.709Z,7.63
2023-03-26T06:40:17.413Z,7.62
2023-03-26T06:41:17.546Z,7.63
2023-03-26T06:42:17.516Z,7.71
2023-03-26T06:43:17.392Z,7.71
2023-03-26T06:44:17.431Z,7.72
2023-03-26T06:45:17.403Z,7.75
2023-03-26T06:46:17.380Z,7.75
2023-03-26T06:47:17.392Z,7.79
2023-03-26T06:48:17.389Z,7.79
2023-03-26T06:49:17.338Z,7.81
2023-03-26T06:50:17.536Z,7.82
2023-03-26T06:51:17.358Z,7.82
2023-03-26T06:52:17.300Z,7.84
2023-03-26T06:53:17.515Z,7.85
2023-03-26T06:54:17.275Z,7.82
2023-03-26T06:55:17.440Z,7.85
2023-03-26T06:56:17.332Z,7.84
2023-03-26T06:57:17.374Z,7.87
2023-03-26T06:58:17.447Z,7.90
2023-03-26T06:59:17.323Z,7.93
2023-03-26T07:00:17.304Z,7.94
2023-03-26T07:01:17.331Z,7.93
2023-03-26T07:02:17.492Z,7.92
2023-03-26T07:03:17.374Z,7.92
2023-03-26T07:04:17.402Z,7.94
2023-03-26T07:05:17.155Z,7.96
2023-03-26T07:06:17.178Z,7.96
2023-03-26T07:07:17.356Z,7.96
2023-03-26T07:08:17.218Z,7.97
2023-03-26T07:09:17.112Z,7.97
2023-03-26T07:10:17.145Z,7.99
2023-03-26T07:11:17.118Z,8.00
2023-03-26T07:12:17.107Z,8.02
2023-03-26T07:13:17.136Z,8.03
2023-03-26T07:14:17.104Z,8.04
2023-03-26T07:15:17.074Z,8.07
2023-03-26T07:16:17.178Z,8.10
2023-03-26T07:17:17.089Z,8.08
2023-03-26T07:18:17.062Z,8.10
2023-03-26T07:19:17.098Z,8.11
2023-03-26T07:20:17.036Z,8.11
2023-03-26T07:21:16.979Z,8.11
2023-03-26T07:22:17.292Z,8.12
2023-03-26T07:23:17.100Z,8.12
2023-03-26T07:24:17.168Z,8.11
2023-03-26T07:25:16.997Z,8.12
2023-03-26T07:26:17.250Z,8.10
2023-03-26T07:27:17.220Z,8.10
2023-03-26T07:28:16.954Z,8.11
2023-03-26T07:29:16.924Z,8.07
2023-03-26T07:30:16.912Z,8.08
2023-03-26T07:31:16.918Z,8.11
2023-03-26T07:32:19.011Z,8.11
2023-03-26T07:33:17.327Z,8.12
2023-03-26T07:34:17.070Z,8.12
2023-03-26T07:35:17.231Z,8.12
2023-03-26T07:36:17.250Z,8.14
2023-03-26T07:37:16.926Z,8.15
2023-03-26T07:38:16.844Z,8.15
2023-03-26T07:39:16.921Z,8.20
2023-03-26T07:40:17.071Z,8.20
2023-03-26T07:41:16.890Z,8.20
2023-03-26T07:42:16.922Z,8.22
2023-03-26T07:43:17.182Z,8.26
2023-03-26T07:44:17.033Z,8.26
2023-03-26T07:45:16.914Z,8.26
2023-03-26T07:46:16.799Z,8.29
2023-03-26T07:47:17.051Z,8.28
2023-03-26T07:48:17.041Z,8.28
2023-03-26T07:49:17.067Z,8.28
2023-03-26T07:50:18.287Z,8.28
2023-03-26T07:51:17.229Z,8.25
2023-03-26T07:52:16.715Z,8.22
2023-03-26T07:53:16.668Z,8.25
2023-03-26T07:54:16.861Z,8.25
2023-03-26T07:55:16.719Z,8.26
2023-03-26T07:56:17.324Z,8.25
2023-03-26T07:57:16.721Z,8.26
2023-03-26T07:58:16.660Z,8.26
2023-03-26T07:59:16.643Z,8.25
2023-03-26T08:00:16.637Z,8.26
2023-03-26T08:01:16.581Z,8.29
2023-03-26T08:02:16.834Z,8.28
2023-03-26T08:03:16.823Z,8.28
2023-03-26T08:04:23.758Z,8.30
2023-03-26T08:05:16.785Z,8.28
2023-03-26T08:06:16.738Z,8.26
2023-03-26T08:07:16.673Z,8.28
2023-03-26T08:08:16.978Z,8.28
2023-03-26T08:09:16.672Z,8.32
2023-03-26T08:10:17.356Z,8.30
2023-03-26T08:11:16.619Z,8.30
2023-03-26T08:12:16.531Z,8.28
2023-03-26T08:13:16.579Z,8.29
2023-03-26T08:14:17.112Z,8.29
2023-03-26T08:15:16.622Z,8.32
2023-03-26T08:16:16.713Z,8.36
2023-03-26T08:17:17.067Z,8.36
2023-03-26T08:18:16.431Z,8.39
2023-03-26T08:19:16.693Z,8.40
2023-03-26T08:20:16.618Z,8.42
2023-03-26T08:21:16.416Z,8.47
2023-03-26T08:22:16.566Z,8.50
2023-03-26T08:23:16.522Z,8.54
2023-03-26T08:24:16.549Z,8.55
2023-03-26T08:25:16.364Z,8.53
2023-03-26T08:26:16.894Z,8.53
2023-03-26T08:27:16.332Z,8.53
2023-03-26T08:28:16.703Z,8.50
2023-03-26T08:29:16.687Z,8.50
2023-03-26T08:30:16.721Z,8.54
2023-03-26T08:31:16.638Z,8.50
2023-03-26T08:32:16.583Z,8.53
2023-03-26T08:33:16.803Z,8.57
2023-03-26T08:34:16.299Z,8.60
2023-03-26T08:35:16.901Z,8.66
2023-03-26T08:36:16.755Z,8.68
2023-03-26T08:37:16.727Z,8.73
2023-03-26T08:38:16.666Z,8.76
2023-03-26T08:39:16.376Z,8.75
2023-03-26T08:40:16.479Z,8.78
2023-03-26T08:41:16.558Z,8.75
2023-03-26T08:42:17.504Z,8.75
2023-03-26T08:43:16.232Z,8.79
2023-03-26T08:44:16.432Z,8.78
2023-03-26T08:45:16.187Z,8.79
2023-03-26T08:46:16.379Z,8.75
2023-03-26T08:47:16.926Z,8.78
2023-03-26T08:48:16.166Z,8.76
2023-03-26T08:49:16.298Z,8.78
2023-03-26T08:50:16.249Z,8.78
2023-03-26T08:51:16.201Z,8.79
2023-03-26T08:52:16.090Z,8.81
2023-03-26T08:53:16.108Z,8.83
2023-03-26T08:54:16.272Z,8.76
2023-03-26T08:55:16.103Z,8.75
2023-03-26T08:56:16.327Z,8.73
2023-03-26T08:57:16.225Z,8.71
2023-03-26T08:58:16.688Z,8.71
2023-03-26T08:59:16.037Z,8.68
2023-03-26T09:00:16.473Z,8.68
2023-03-26T09:01:16.085Z,8.69
2023-03-26T09:02:16.876Z,8.71
2023-03-26T09:03:16.404Z,8.71
2023-03-26T09:04:16.313Z,8.72
2023-03-26T09:05:16.063Z,8.73
2023-03-26T09:06:16.045Z,8.75
2023-03-26T09:07:16.138Z,8.75
2023-03-26T09:08:16.226Z,8.75
2023-03-26T09:09:18.828Z,8.72
2023-03-26T09:10:16.294Z,8.72
2023-03-26T09:11:16.085Z,8.78
2023-03-26T09:12:15.918Z,8.81
2023-03-26T09:13:16.036Z,8.83
2023-03-26T09:14:16.116Z,8.87
2023-03-26T09:15:15.869Z,8.88
2023-03-26T09:16:15.921Z,8.87
2023-03-26T09:17:15.876Z,8.88
2023-03-26T09:18:16.022Z,8.90
2023-03-26T09:19:15.869Z,8.93
2023-03-26T09:20:15.853Z,8.94
2023-03-26T09:21:16.339Z,8.97
2023-03-26T09:22:16.114Z,8.96
2023-03-26T09:23:16.013Z,8.96
2023-03-26T09:24:16.211Z,8.93
2023-03-26T09:25:15.879Z,8.93
2023-03-26T09:26:16.856Z,8.93
2023-03-26T09:27:16.192Z,8.96
2023-03-26T09:28:16.010Z,8.97
2023-03-26T09:29:16.119Z,9.04
2023-03-26T09:30:15.908Z,9.09
2023-03-26T09:31:15.841Z,9.13
2023-03-26T09:32:15.997Z,9.02
2023-03-26T09:33:15.700Z,8.94
2023-03-26T09:34:15.884Z,8.97
2023-03-26T09:35:15.711Z,8.99
2023-03-26T09:36:16.055Z,9.02
2023-03-26T09:37:15.626Z,9.05
2023-03-26T09:38:15.782Z,9.04
2023-03-26T09:39:15.643Z,8.99
2023-03-26T09:40:15.811Z,8.91
2023-03-26T09:41:15.849Z,8.90
2023-03-26T09:42:15.788Z,8.86
2023-03-26T09:43:16.026Z,8.81
2023-03-26T09:44:15.751Z,8.78
2023-03-26T09:45:15.571Z,8.79
2023-03-26T09:46:16.141Z,8.81
2023-03-26T09:47:15.800Z,8.81
2023-03-26T09:48:15.592Z,8.79
2023-03-26T09:49:15.798Z,8.72
2023-03-26T09:50:15.760Z,8.75
2023-03-26T09:51:15.627Z,8.81
2023-03-26T09:52:16.199Z,8.83
2023-03-26T09:53:15.590Z,8.79
2023-03-26T09:54:15.589Z,8.79
2023-03-26T09:55:15.929Z,8.81
2023-03-26T09:56:15.675Z,8.87
2023-03-26T09:57:15.702Z,8.91
2023-03-26T09:58:15.591Z,8.97
2023-03-26T09:59:15.618Z,9.04
2023-03-26T10:00:15.432Z,9.10
2023-03-26T10:01:15.449Z,9.06
2023-03-26T10:02:15.562Z,9.06
2023-03-26T10:03:15.611Z,9.10
2023-03-26T10:04:15.703Z,9.06
2023-03-26T10:05:15.452Z,9.02
2023-03-26T10:06:15.509Z,9.01
2023-03-26T10:07:15.404Z,8.99
2023-03-26T10:08:15.452Z,9.02
2023-03-26T10:09:15.977Z,9.05
2023-03-26T10:10:15.436Z,9.06
2023-03-26T10:11:15.865Z,9.06
2023-03-26T10:12:15.308Z,9.10
2023-03-26T10:13:15.337Z,8.99
2023-03-26T10:14:15.794Z,8.88
2023-03-26T10:15:15.704Z,8.88
2023-03-26T10:16:15.532Z,8.90
2023-03-26T10:17:15.560Z,8.90
2023-03-26T10:18:27.169Z,8.90
2023-03-26T10:19:15.370Z,8.83
2023-03-26T10:20:15.221Z,8.76
2023-03-26T10:21:15.194Z,8.71
2023-03-26T10:22:15.297Z,8.60
2023-03-26T10:23:15.249Z,8.55
2023-03-26T10:24:15.274Z,8.58
2023-03-26T10:25:15.329Z,8.57
2023-03-26T10:26:15.531Z,8.60
2023-03-26T10:27:15.266Z,8.66
2023-03-26T10:28:15.204Z,8.73
2023-03-26T10:29:15.164Z,8.79
2023-03-26T10:30:15.113Z,8.87
2023-03-26T10:31:15.425Z,8.94
2023-03-26T10:32:15.269Z,8.94
2023-03-26T10:33:15.630Z,8.91
2023-03-26T10:34:29.077Z,8.91
2023-03-26T10:35:15.290Z,8.96
2023-03-26T10:36:15.187Z,9.04
2023-03-26T10:37:15.104Z,9.10
2023-03-26T10:38:15.294Z,9.15
2023-03-26T10:39:36.801Z,9.15
2023-03-26T10:40:15.055Z,9.21
2023-03-26T10:41:15.379Z,9.16
2023-03-26T10:42:15.046Z,9.05
2023-03-26T10:43:15.040Z,8.97
2023-03-26T10:44:15.059Z,8.97
2023-03-26T10:45:14.995Z,9.02
2023-03-26T10:46:15.029Z,9.09
2023-03-26T10:47:15.508Z,9.13
2023-03-26T10:48:14.980Z,9.16
2023-03-26T10:49:14.902Z,9.13
2023-03-26T10:50:16.990Z,8.94
2023-03-26T10:51:14.928Z,8.87
2023-03-26T10:52:14.918Z,8.71
2023-03-26T10:53:14.879Z,8.62
2023-03-26T10:54:15.016Z,8.62
2023-03-26T10:55:15.252Z,8.55
2023-03-26T10:56:15.118Z,8.55
2023-03-26T10:57:15.232Z,8.54
2023-03-26T10:58:15.028Z,8.36
2023-03-26T10:59:14.875Z,8.35
2023-03-26T11:00:14.812Z,8.33
2023-03-26T11:01:14.906Z,8.33
2023-03-26T11:02:14.959Z,8.35
2023-03-26T11:03:14.974Z,8.39
2023-03-26T11:04:14.822Z,8.44
2023-03-26T11:05:14.822Z,8.50
2023-03-26T11:06:14.974Z,8.51
2023-03-26T11:07:14.772Z,8.50
2023-03-26T11:08:15.121Z,8.54
2023-03-26T11:09:14.747Z,8.62
2023-03-26T11:10:15.154Z,8.68
2023-03-26T11:11:14.859Z,8.75
2023-03-26T11:12:26.494Z,8.76
2023-03-26T11:13:14.903Z,8.66
2023-03-26T11:14:21.646Z,8.60
2023-03-26T11:15:14.782Z,8.62
2023-03-26T11:16:14.698Z,8.65
2023-03-26T11:17:14.891Z,8.66
2023-03-26T11:18:14.716Z,8.63
2023-03-26T11:19:14.929Z,8.60
2023-03-26T11:20:14.703Z,8.62
2023-03-26T11:21:19.921Z,8.58
2023-03-26T11:22:14.780Z,8.54
2023-03-26T11:23:14.616Z,8.53
2023-03-26T11:24:14.743Z,8.45
2023-03-26T11:25:14.985Z,8.29
2023-03-26T11:26:14.660Z,8.22
2023-03-26T11:27:16.622Z,8.21
2023-03-26T11:28:14.663Z,8.17
2023-03-26T11:29:32.535Z,8.14
2023-03-26T11:30:14.543Z,8.18
2023-03-26T11:31:15.023Z,8.25
2023-03-26T11:32:14.744Z,8.21
2023-03-26T11:33:14.508Z,8.17
2023-03-26T11:34:14.675Z,8.17
2023-03-26T11:35:14.548Z,8.22
2023-03-26T11:36:14.561Z,8.26
2023-03-26T11:37:14.596Z,8.33
2023-03-26T11:38:14.732Z,8.37
2023-03-26T11:39:14.462Z,8.40
2023-03-26T11:40:14.595Z,8.40
2023-03-26T11:41:14.636Z,8.45
2023-03-26T11:42:14.459Z,8.45
2023-03-26T11:43:14.531Z,8.51
2023-03-26T11:44:14.647Z,8.58
2023-03-26T11:45:14.544Z,8.62
2023-03-26T11:46:14.647Z,8.69
2023-03-26T11:47:14.522Z,8.75
2023-03-26T11:48:14.340Z,8.81
2023-03-26T11:49:14.357Z,8.83
2023-03-26T11:50:14.554Z,8.78
2023-03-26T11:51:14.505Z,8.83
2023-03-26T11:52:14.341Z,8.87
2023-03-26T11:53:14.359Z,8.86
2023-03-26T11:54:14.390Z,8.75
2023-03-26T11:55:14.315Z,8.53
2023-03-26T11:56:14.509Z,8.32
2023-03-26T11:57:14.279Z,8.26
2023-03-26T11:58:14.353Z,8.29
2023-03-26T11:59:14.720Z,8.39
2023-03-26T12:00:14.217Z,8.51
2023-03-26T12:01:14.342Z,8.50
2023-03-26T12:02:14.242Z,8.51
2023-03-26T12:03:14.374Z,8.62
2023-03-26T12:04:14.228Z,8.75
2023-03-26T12:05:14.267Z,8.90
2023-03-26T12:06:14.156Z,8.93
2023-03-26T12:07:14.133Z,8.94
2023-03-26T12:08:14.154Z,8.90
2023-03-26T12:09:14.120Z,8.97
2023-03-26T12:10:18.352Z,9.02
2023-03-26T12:11:14.110Z,9.24
2023-03-26T12:12:14.095Z,9.46
2023-03-26T12:13:14.101Z,9.70
2023-03-26T12:14:14.155Z,9.82
2023-03-26T12:15:14.320Z,9.93
2023-03-26T12:16:14.112Z,9.97
2023-03-26T12:17:14.353Z,10.09
2023-03-26T12:18:14.064Z,10.21
2023-03-26T12:19:14.036Z,10.34
2023-03-26T12:20:14.255Z,10.40
2023-03-26T12:21:14.228Z,10.51
2023-03-26T12:22:13.997Z,10.51
2023-03-26T12:23:14.018Z,10.46
2023-03-26T12:24:14.018Z,10.44
2023-03-26T12:25:13.971Z,10.63
2023-03-26T12:26:14.022Z,10.58
2023-03-26T12:27:13.987Z,10.68
2023-03-26T12:28:14.043Z,10.88
2023-03-26T12:29:13.963Z,11.32
2023-03-26T12:30:13.926Z,11.70
2023-03-26T12:31:14.126Z,11.94
2023-03-26T12:32:13.944Z,12.02
2023-03-26T12:33:13.997Z,11.82
2023-03-26T12:34:13.902Z,11.52
2023-03-26T12:35:13.908Z,11.72
2023-03-26T12:36:13.926Z,12.04
2023-03-26T12:37:13.891Z,12.30
2023-03-26T12:38:14.035Z,12.37
2023-03-26T12:40:06.213Z,12.52
2023-03-26T12:40:20.624Z,12.63
2023-03-26T12:43:40.557Z,12.66
2023-03-26T12:45:02.428Z,12.87
2023-03-26T12:45:07.838Z,13.09
2023-03-26T12:47:56.377Z,12.75
2023-03-26T12:48:08.299Z,12.78
2023-03-26T12:48:13.853Z,12.97
2023-03-26T12:49:14.480Z,12.75
2023-03-26T12:50:13.710Z,12.88
2023-03-26T12:51:13.639Z,13.03
2023-03-26T12:52:14.077Z,13.09
2023-03-26T12:53:13.682Z,12.96
2023-03-26T12:54:13.754Z,13.12
2023-03-26T12:55:13.643Z,13.25
2023-03-26T12:56:13.636Z,13.46
2023-03-26T12:57:13.851Z,13.61
2023-03-26T12:58:14.261Z,13.46
2023-03-26T12:59:13.656Z,13.14
2023-03-26T13:00:13.608Z,13.04
2023-03-26T13:01:13.609Z,12.96
2023-03-26T13:02:14.370Z,12.62
2023-03-26T13:03:13.795Z,12.41
2023-03-26T13:04:13.743Z,12.29
2023-03-26T13:05:13.649Z,11.99
2023-03-26T13:06:13.632Z,11.74
2023-03-26T13:07:13.583Z,11.49
2023-03-26T13:08:13.560Z,11.14
2023-03-26T13:09:13.494Z,10.88
2023-03-26T13:10:13.537Z,10.78
2023-03-26T13:11:13.497Z,10.73
2023-03-26T13:12:13.470Z,10.47
2023-03-26T13:13:13.445Z,10.33
2023-03-26T13:14:13.468Z,10.18
2023-03-26T13:15:13.664Z,9.99
2023-03-26T13:16:13.651Z,9.91
2023-03-26T13:17:13.440Z,9.89
2023-03-26T13:18:13.640Z,9.76